Welcome to Northern Hawkes Bay. New Zealand.
PWS Header
      nz Flag



Hit Counter


W3C Valid W3C Valid logo


    Wairoa

Select any of the Stations below to visit their websites.










Historic Data from Weather Underground
Select the location of interest below. Wairoa is the default. Please have patience, this Data is slow to load in.
Northern Hawkes Bay Historical Data
Daily Summary for August 19, 2017 Units:  Metric    English   Both
« Previous Day
Next Day »
Daily Weekly Monthly Yearly Custom
  High: Low: Average:
Temperature: 18.3 °C 7.1 °C 11.4 °C
Dew Point: 11.3 °C 4.9 °C 8.8 °C
Humidity: 99% 60% 85%
Wind Speed: 14.8km/h 0.0km/h 5.2km/h
Wind Gust: 30.6km/h - -
Wind- - SSW
Pressure: 995.5 hPa 985.3 hPa -
Precipitation: 5.3 mm    
Historical Graphs
 
 
Tabular Data for August 19, 2017
Time Temperature Dew Point Pressure Wind Wind Speed Wind Gust Humidity Rainfall Rate (Hourly) solar
00:03 8.7 °C 6.5 °C 995.5 hPa NW 7.2 km/h 9.7 km/h 86% 0.0 mm 0 W/m2
00:08 8.5 °C 6.1 °C 995.5 hPa NW 5.0 km/h 9.7 km/h 85% 0.0 mm 0 W/m2
00:13 8.5 °C 6.1 °C 995.5 hPa NW 6.1 km/h 9.7 km/h 85% 0.0 mm 0 W/m2
00:18 8.5 °C 6.1 °C 995.5 hPa NW 6.1 km/h 9.7 km/h 85% 0.0 mm 0 W/m2
00:23 8.5 °C 6.1 °C 995.5 hPa NW 6.1 km/h 9.7 km/h 85% 0.0 mm 0 W/m2
00:28 8.5 °C 5.9 °C 995.1 hPa NW 3.5 km/h 9.7 km/h 84% 0.0 mm 0 W/m2
00:33 8.5 °C 5.9 °C 995.1 hPa NW 7.2 km/h 9.7 km/h 84% 0.0 mm 0 W/m2
00:38 8.5 °C 5.8 °C 995.1 hPa NNW 6.1 km/h 9.7 km/h 83% 0.0 mm 0 W/m2
00:43 8.5 °C 5.6 °C 995.5 hPa NNW 5.0 km/h 9.7 km/h 82% 0.0 mm 0 W/m2
00:48 8.4 °C 5.5 °C 995.5 hPa NNW 3.5 km/h 8.7 km/h 82% 0.0 mm 0 W/m2
00:53 8.3 °C 5.2 °C 995.1 hPa North 3.5 km/h 7.2 km/h 81% 0.0 mm 0 W/m2
00:58 8.3 °C 5.2 °C 995.1 hPa NNW 5.0 km/h 7.2 km/h 81% 0.0 mm 0 W/m2
01:03 8.3 °C 5.2 °C 995.1 hPa NW 7.2 km/h 11.1 km/h 81% 0.0 mm 0 W/m2
01:08 8.2 °C 5.1 °C 995.1 hPa NW 6.1 km/h 11.1 km/h 81% 0.0 mm 0 W/m2
01:13 8.2 °C 5.3 °C 994.8 hPa NW 5.0 km/h 8.7 km/h 82% 0.0 mm 0 W/m2
01:18 8.1 °C 5.2 °C 995.1 hPa NW 3.5 km/h 8.7 km/h 82% 0.0 mm 0 W/m2
01:23 8.1 °C 5.2 °C 994.8 hPa NW 7.2 km/h 8.7 km/h 82% 0.0 mm 0 W/m2
01:27 8.2 °C 5.3 °C 994.8 hPa NW 7.2 km/h 11.1 km/h 82% 0.0 mm 0 W/m2
01:33 8.4 °C 5.5 °C 994.5 hPa NW 6.1 km/h 11.1 km/h 82% 0.0 mm 0 W/m2
01:38 8.4 °C 5.3 °C 994.8 hPa NNW 5.0 km/h 9.7 km/h 81% 0.0 mm 0 W/m2
01:43 8.4 °C 5.3 °C 994.8 hPa NNW 5.0 km/h 9.7 km/h 81% 0.0 mm 0 W/m2
01:48 8.4 °C 5.3 °C 994.5 hPa NW 6.1 km/h 9.7 km/h 81% 0.0 mm 0 W/m2
01:53 8.4 °C 5.3 °C 994.5 hPa NNW 5.0 km/h 9.7 km/h 81% 0.0 mm 0 W/m2
01:57 8.4 °C 5.3 °C 994.1 hPa NNW 5.0 km/h 9.7 km/h 81% 0.0 mm 0 W/m2
02:04 8.4 °C 5.5 °C 994.1 hPa NW 7.2 km/h 11.1 km/h 82% 0.0 mm 0 W/m2
02:09 8.3 °C 5.4 °C 994.1 hPa NW 2.6 km/h 11.1 km/h 82% 0.0 mm 0 W/m2
02:14 8.2 °C 5.3 °C 994.1 hPa Calm   9.7 km/h 82% 0.0 mm 0 W/m2
02:19 8.0 °C 5.1 °C 994.1 hPa East 3.5 km/h 5.0 km/h 82% 0.0 mm 0 W/m2
02:24 8.0 °C 5.3 °C 994.1 hPa NNW 7.2 km/h 9.7 km/h 83% 0.0 mm 0 W/m2
02:30 8.1 °C 5.6 °C 993.8 hPa NW 7.2 km/h 12.2 km/h 84% 0.0 mm 0 W/m2
02:35 8.2 °C 5.7 °C 993.8 hPa NW 7.2 km/h 12.2 km/h 84% 0.0 mm 0 W/m2
02:40 8.2 °C 5.7 °C 993.8 hPa NNW 7.2 km/h 13.4 km/h 84% 0.0 mm 0 W/m2
02:45 8.2 °C 5.7 °C 993.8 hPa NNW 7.2 km/h 13.4 km/h 84% 0.0 mm 0 W/m2
02:50 8.1 °C 5.6 °C 993.8 hPa NNW 6.1 km/h 9.7 km/h 84% 0.0 mm 0 W/m2
02:55 8.0 °C 5.4 °C 993.5 hPa NNW 7.2 km/h 12.2 km/h 84% 0.0 mm 0 W/m2
03:00 8.0 °C 5.4 °C 993.5 hPa NW 9.7 km/h 12.2 km/h 84% 0.0 mm 0 W/m2
03:05 7.9 °C 5.4 °C 993.5 hPa NNW 5.0 km/h 13.4 km/h 84% 0.0 mm 0 W/m2
03:10 7.8 °C 5.3 °C 993.1 hPa North 6.1 km/h 13.4 km/h 84% 0.0 mm 0 W/m2
03:15 7.8 °C 5.3 °C 993.1 hPa North 5.0 km/h 9.7 km/h 84% 0.0 mm 0 W/m2
03:20 7.7 °C 5.2 °C 993.1 hPa North 3.5 km/h 9.7 km/h 84% 0.0 mm 0 W/m2
03:25 7.6 °C 5.1 °C 993.1 hPa North 5.0 km/h 7.2 km/h 84% 0.0 mm 0 W/m2
03:30 7.5 °C 5.2 °C 993.1 hPa NNW 6.1 km/h 9.7 km/h 85% 0.0 mm 0 W/m2
03:36 7.5 °C 5.2 °C 993.1 hPa NNW 2.6 km/h 9.7 km/h 85% 0.0 mm 0 W/m2
03:41 7.4 °C 5.1 °C 993.1 hPa North 3.5 km/h 8.7 km/h 85% 0.0 mm 0 W/m2
03:46 7.3 °C 4.9 °C 992.8 hPa NNW 5.0 km/h 7.2 km/h 85% 0.0 mm 0 W/m2
03:51 7.3 °C 5.1 °C 992.8 hPa NNW 5.0 km/h 8.7 km/h 86% 0.0 mm 0 W/m2
03:56 7.4 °C 5.2 °C 992.8 hPa NNW 5.0 km/h 9.7 km/h 86% 0.0 mm 0 W/m2
04:01 7.4 °C 5.4 °C 992.4 hPa NNW 1.1 km/h 9.7 km/h 87% 0.0 mm 0 W/m2
04:06 7.3 °C 5.1 °C 992.8 hPa North 1.1 km/h 7.2 km/h 86% 0.0 mm 0 W/m2
04:10 7.2 °C 5.2 °C 992.8 hPa NNW 5.0 km/h 6.1 km/h 87% 0.0 mm 0 W/m2
04:16 7.1 °C 5.1 °C 992.8 hPa NW 5.0 km/h 7.2 km/h 87% 0.0 mm 0 W/m2
04:21 7.1 °C 5.2 °C 992.4 hPa NW 5.0 km/h 7.2 km/h 88% 0.0 mm 0 W/m2
04:26 7.2 °C 5.3 °C 992.4 hPa NW 3.5 km/h 7.2 km/h 88% 0.0 mm 0 W/m2
04:31 7.2 °C 5.3 °C 992.1 hPa NW 1.1 km/h 7.2 km/h 88% 0.0 mm 0 W/m2
04:36 7.1 °C 5.2 °C 992.4 hPa NW 2.6 km/h 5.0 km/h 88% 0.0 mm 0 W/m2
04:40 7.1 °C 5.2 °C 992.4 hPa NNW 2.6 km/h 5.0 km/h 88% 0.0 mm 0 W/m2
04:46 7.1 °C 5.2 °C 992.4 hPa Calm   5.0 km/h 88% 0.0 mm 0 W/m2
04:51 7.2 °C 5.5 °C 992.8 hPa North 2.6 km/h 5.0 km/h 89% 0.0 mm 0 W/m2
04:55 7.3 °C 5.6 °C 992.8 hPa North 3.5 km/h 7.2 km/h 89% 0.0 mm 0 W/m2
05:01 7.5 °C 5.8 °C 992.8 hPa North 3.5 km/h 8.7 km/h 89% 0.0 mm 0 W/m2
05:06 7.6 °C 5.9 °C 992.8 hPa North 7.2 km/h 11.1 km/h 89% 0.0 mm 0 W/m2
05:11 7.8 °C 6.1 °C 992.8 hPa NNW 8.7 km/h 12.2 km/h 89% 0.0 mm 0 W/m2
05:15 7.9 °C 6.1 °C 993.1 hPa NNW 6.1 km/h 13.4 km/h 88% 0.0 mm 0 W/m2
05:21 7.9 °C 6.1 °C 993.1 hPa North 6.1 km/h 14.8 km/h 88% 0.0 mm 0 W/m2
05:26 7.9 °C 6.1 °C 993.1 hPa North 8.7 km/h 14.8 km/h 88% 0.0 mm 0 W/m2
05:31 7.8 °C 6.1 °C 993.1 hPa North 6.1 km/h 13.4 km/h 89% 0.0 mm 0 W/m2
05:35 7.8 °C 6.3 °C 993.5 hPa North 6.1 km/h 13.4 km/h 90% 0.3 mm 0 W/m2
05:40 7.8 °C 6.4 °C 993.1 hPa NNW 5.0 km/h 11.1 km/h 91% 0.5 mm 0 W/m2
05:46 7.8 °C 6.6 °C 993.5 hPa NNW 5.0 km/h 11.1 km/h 92% 1.0 mm 0 W/m2
05:51 7.7 °C 6.7 °C 993.1 hPa North 1.1 km/h 8.7 km/h 93% 1.3 mm 0 W/m2
05:55 7.9 °C 7.0 °C 993.1 hPa North 5.0 km/h 11.1 km/h 94% 1.8 mm 0 W/m2
06:00 8.0 °C 7.2 °C 992.4 hPa NNE 6.1 km/h 11.1 km/h 95% 2.8 mm 0 W/m2
06:05 8.1 °C 7.5 °C 992.1 hPa ENE 6.1 km/h 13.4 km/h 96% 3.3 mm 0 W/m2
06:10 8.6 °C 8.2 °C 992.4 hPa ENE 3.5 km/h 13.4 km/h 97% 3.6 mm 0 W/m2
06:16 8.6 °C 8.3 °C 992.4 hPa NNE 5.0 km/h 12.2 km/h 98% 3.6 mm 0 W/m2
06:21 8.6 °C 8.3 °C 992.4 hPa NW 7.2 km/h 11.1 km/h 98% 3.6 mm 0 W/m2
06:25 8.4 °C 8.1 °C 992.4 hPa NW 7.2 km/h 12.2 km/h 98% 3.6 mm 0 W/m2
06:30 8.4 °C 8.3 °C 992.4 hPa NNW 3.5 km/h 12.2 km/h 99% 3.6 mm 0 W/m2
06:36 8.6 °C 8.4 °C 992.8 hPa North 3.5 km/h 9.7 km/h 99% 3.3 mm 0 W/m2
06:41 8.8 °C 8.7 °C 992.4 hPa NNW 5.0 km/h 9.7 km/h 99% 3.0 mm 0 W/m2
06:45 8.6 °C 8.4 °C 992.4 hPa NW 1.1 km/h 9.7 km/h 99% 2.8 mm 0 W/m2
06:50 8.4 °C 8.3 °C 992.4 hPa NNW 3.5 km/h 8.7 km/h 99% 2.3 mm 0 W/m2
06:56 8.4 °C 8.3 °C 992.1 hPa NNW 5.0 km/h 7.2 km/h 99% 1.8 mm 0 W/m2
07:00 8.4 °C 8.3 °C 991.8 hPa North 2.6 km/h 7.2 km/h 99% 1.0 mm 0 W/m2
07:05 8.4 °C 8.3 °C 992.1 hPa NNE 2.6 km/h 6.1 km/h 99% 0.3 mm 0 W/m2
07:11 8.4 °C 8.3 °C 992.1 hPa NNE 3.5 km/h 5.0 km/h 99% 0.3 mm 0 W/m2
07:15 8.6 °C 8.4 °C 991.8 hPa North 5.0 km/h 7.2 km/h 99% 0.3 mm 0 W/m2
07:20 8.6 °C 8.4 °C 991.8 hPa NNW 2.6 km/h 7.2 km/h 99% 0.3 mm 1 W/m2
07:25 8.7 °C 8.6 °C 991.8 hPa NNW 1.1 km/h 6.1 km/h 99% 0.3 mm 2 W/m2
07:30 8.8 °C 8.7 °C 991.8 hPa North 6.1 km/h 9.7 km/h 99% 0.3 mm 4 W/m2
07:36 8.8 °C 8.7 °C 991.8 hPa NNW 5.0 km/h 9.7 km/h 99% 0.3 mm 4 W/m2
07:40 9.0 °C 8.8 °C 991.8 hPa North 5.0 km/h 9.7 km/h 99% 0.3 mm 7 W/m2
07:45 9.1 °C 8.9 °C 991.4 hPa North 3.5 km/h 8.7 km/h 99% 0.3 mm 13 W/m2
07:50 9.2 °C 9.1 °C 991.4 hPa NNW 6.1 km/h 8.7 km/h 99% 0.3 mm 20 W/m2
07:55 9.3 °C 9.2 °C 991.4 hPa NW 8.7 km/h 11.1 km/h 99% 0.3 mm 21 W/m2
08:00 9.4 °C 9.3 °C 991.4 hPa NNW 7.2 km/h 11.1 km/h 99% 0.3 mm 27 W/m2
08:06 9.5 °C 9.3 °C 991.4 hPa NNW 6.1 km/h 11.1 km/h 99% 0.3 mm 32 W/m2
08:11 9.6 °C 9.4 °C 991.4 hPa NNW 8.7 km/h 13.4 km/h 99% 0.0 mm 31 W/m2
08:15 9.7 °C 9.6 °C 991.4 hPa NNW 5.0 km/h 13.4 km/h 99% 0.0 mm 39 W/m2
08:20 10.0 °C 9.8 °C 991.1 hPa NNW 2.6 km/h 13.4 km/h 99% 0.0 mm 79 W/m2
08:25 10.2 °C 10.1 °C 991.1 hPa North 5.0 km/h 11.1 km/h 99% 0.0 mm 177 W/m2
08:30 10.8 °C 10.7 °C 991.1 hPa North 6.1 km/h 11.1 km/h 99% 0.0 mm 161 W/m2
08:35 11.2 °C 10.9 °C 991.4 hPa North 7.2 km/h 13.4 km/h 98% 0.0 mm 263 W/m2
08:41 11.6 °C 11.0 °C 991.1 hPa North 11.1 km/h 17.2 km/h 96% 0.0 mm 254 W/m2
08:45 11.8 °C 10.9 °C 991.1 hPa North 9.7 km/h 17.2 km/h 94% 0.0 mm 254 W/m2
08:50 12.0 °C 10.6 °C 991.4 hPa NNW 11.1 km/h 15.8 km/h 91% 0.0 mm 259 W/m2
08:55 12.0 °C 10.2 °C 991.4 hPa NNW 8.7 km/h 15.8 km/h 89% 0.0 mm 168 W/m2
09:00 11.8 °C 10.2 °C 991.1 hPa NNW 5.0 km/h 14.8 km/h 90% 0.0 mm 163 W/m2
09:05 12.3 °C 10.7 °C 991.1 hPa NNW 3.5 km/h 13.4 km/h 90% 0.0 mm 320 W/m2
09:11 13.3 °C 11.3 °C 991.1 hPa NNW 6.1 km/h 11.1 km/h 88% 0.0 mm 169 W/m2
09:15 13.1 °C 10.8 °C 991.1 hPa North 12.2 km/h 17.2 km/h 86% 0.0 mm 144 W/m2
09:20 12.7 °C 10.1 °C 991.1 hPa NNW 12.2 km/h 21.9 km/h 84% 0.0 mm 146 W/m2
09:25 12.5 °C 9.9 °C 991.1 hPa NNW 12.2 km/h 21.9 km/h 84% 0.0 mm 119 W/m2
09:30 12.4 °C 9.8 °C 991.1 hPa NNW 11.1 km/h 21.9 km/h 84% 0.0 mm 109 W/m2
09:35 12.3 °C 9.7 °C 990.7 hPa NNW 8.7 km/h 18.3 km/h 84% 0.0 mm 147 W/m2
09:40 12.5 °C 10.1 °C 990.7 hPa NNW 12.2 km/h 18.3 km/h 85% 0.0 mm 134 W/m2
09:45 12.5 °C 9.9 °C 990.7 hPa NNW 7.2 km/h 19.5 km/h 84% 0.0 mm 127 W/m2
09:50 12.7 °C 10.1 °C 990.7 hPa NNW 6.1 km/h 19.5 km/h 84% 0.0 mm 137 W/m2
09:55 12.8 °C 10.2 °C 990.4 hPa NNW 5.0 km/h 14.8 km/h 84% 0.0 mm 150 W/m2
10:00 13.2 °C 10.7 °C 990.4 hPa North 3.5 km/h 13.4 km/h 85% 0.0 mm 157 W/m2
10:05 13.7 °C 10.9 °C 990.4 hPa North 9.7 km/h 13.4 km/h 83% 0.0 mm 120 W/m2
10:10 14.1 °C 10.7 °C 990.1 hPa North 7.2 km/h 12.2 km/h 80% 0.0 mm 103 W/m2
10:15 15.0 °C 11.0 °C 990.1 hPa North 6.1 km/h 12.2 km/h 77% 0.0 mm 98 W/m2
10:20 15.5 °C 10.9 °C 990.4 hPa NNW 9.7 km/h 15.8 km/h 74% 0.0 mm 92 W/m2
10:25 15.5 °C 10.7 °C 990.4 hPa NNW 12.2 km/h 20.9 km/h 73% 0.0 mm 99 W/m2
10:30 15.7 °C 10.9 °C 990.4 hPa NNW 9.7 km/h 20.9 km/h 73% 0.0 mm 92 W/m2
10:35 15.4 °C 10.6 °C 990.4 hPa NNW 6.1 km/h 20.9 km/h 73% 0.0 mm 195 W/m2
10:40 15.9 °C 10.9 °C 990.1 hPa North 13.4 km/h 20.9 km/h 72% 0.0 mm 113 W/m2
10:45 15.2 °C 10.0 °C 990.1 hPa NNE 12.2 km/h 20.9 km/h 71% 0.0 mm 107 W/m2
10:50 14.8 °C 10.2 °C 990.1 hPa North 5.0 km/h 19.5 km/h 74% 0.0 mm 146 W/m2
10:55 14.9 °C 10.5 °C 989.7 hPa North 9.7 km/h 19.5 km/h 75% 0.0 mm 111 W/m2
11:01 15.0 °C 10.6 °C 989.7 hPa NNE 14.8 km/h 20.9 km/h 75% 0.0 mm 158 W/m2
11:05 15.0 °C 10.2 °C 989.7 hPa NNE 7.2 km/h 20.9 km/h 73% 0.0 mm 189 W/m2
11:10 15.4 °C 10.6 °C 989.4 hPa NNE 7.2 km/h 20.9 km/h 73% 0.0 mm 261 W/m2
11:15 16.0 °C 10.9 °C 989.1 hPa NNE 6.1 km/h 13.4 km/h 72% 0.0 mm 290 W/m2
11:20 16.6 °C 10.9 °C 989.1 hPa NE 6.1 km/h 13.4 km/h 69% 0.0 mm 242 W/m2
11:25 16.6 °C 10.4 °C 989.4 hPa NNE 3.5 km/h 11.1 km/h 67% 0.0 mm 203 W/m2
11:30 16.6 °C 10.4 °C 989.7 hPa North 6.1 km/h 11.1 km/h 67% 0.0 mm 176 W/m2
11:35 16.6 °C 10.4 °C 989.4 hPa North 7.2 km/h 17.2 km/h 67% 0.0 mm 230 W/m2
11:40 16.6 °C 10.4 °C 989.1 hPa NNE 5.0 km/h 17.2 km/h 67% 0.0 mm 387 W/m2
11:45 17.2 °C 10.6 °C 989.1 hPa NE 5.0 km/h 15.8 km/h 65% 0.0 mm 299 W/m2
11:50 17.5 °C 10.8 °C 989.4 hPa NE 3.5 km/h 13.4 km/h 65% 0.0 mm 205 W/m2
11:55 17.0 °C 10.2 °C 989.4 hPa NNE 5.0 km/h 13.4 km/h 64% 0.0 mm 213 W/m2
12:00 17.1 °C 10.7 °C 989.4 hPa North 7.2 km/h 15.8 km/h 66% 0.0 mm 243 W/m2
12:05 17.2 °C 10.6 °C 989.1 hPa NNE 6.1 km/h 15.8 km/h 65% 0.0 mm 239 W/m2
12:10 17.3 °C 10.7 °C 989.1 hPa NNE 6.1 km/h 15.8 km/h 65% 0.0 mm 260 W/m2
12:15 17.7 °C 11.1 °C 989.1 hPa NNE 2.6 km/h 12.2 km/h 65% 0.0 mm 243 W/m2
12:20 18.0 °C 11.1 °C 988.7 hPa NNE 3.5 km/h 8.7 km/h 64% 0.0 mm 272 W/m2
12:25 18.2 °C 10.8 °C 988.4 hPa NNE 6.1 km/h 9.7 km/h 62% 0.0 mm 329 W/m2
12:30 18.2 °C 10.3 °C 988.4 hPa NNE 7.2 km/h 12.2 km/h 60% 0.0 mm 313 W/m2
12:35 18.3 °C 10.7 °C 988.0 hPa NE 14.8 km/h 17.2 km/h 61% 0.0 mm 249 W/m2
12:40 17.7 °C 10.3 °C 988.0 hPa NE 7.2 km/h 18.3 km/h 62% 0.0 mm 239 W/m2
12:45 17.8 °C 10.7 °C 988.0 hPa NE 7.2 km/h 18.3 km/h 63% 0.0 mm 198 W/m2
12:50 17.4 °C 10.3 °C 988.0 hPa NE 9.7 km/h 15.8 km/h 63% 0.0 mm 161 W/m2
12:55 17.1 °C 10.2 °C 987.7 hPa NE 5.0 km/h 15.8 km/h 64% 0.0 mm 152 W/m2
13:00 16.9 °C 10.5 °C 987.7 hPa NNE 9.7 km/h 15.8 km/h 66% 0.0 mm 150 W/m2
13:05 16.9 °C 10.5 °C 987.7 hPa NNE 5.0 km/h 14.8 km/h 66% 0.0 mm 151 W/m2
13:10 16.9 °C 10.7 °C 987.7 hPa NE 8.7 km/h 14.8 km/h 67% 0.0 mm 140 W/m2
13:15 16.9 °C 10.7 °C 987.7 hPa NE 6.1 km/h 14.8 km/h 67% 0.0 mm 134 W/m2
13:20 16.7 °C 10.3 °C 987.4 hPa NE 7.2 km/h 13.4 km/h 66% 0.0 mm 131 W/m2
13:25 16.7 °C 10.6 °C 987.0 hPa NE 9.7 km/h 14.8 km/h 67% 0.0 mm 131 W/m2
13:30 16.7 °C 10.3 °C 987.0 hPa NE 1.1 km/h 14.8 km/h 66% 0.0 mm 121 W/m2
13:35 16.7 °C 10.3 °C 986.7 hPa NE 7.2 km/h 14.8 km/h 66% 0.0 mm 118 W/m2
13:40 16.6 °C 10.2 °C 986.7 hPa NE 6.1 km/h 13.4 km/h 66% 0.0 mm 119 W/m2
13:45 16.6 °C 10.2 °C 986.3 hPa NE 6.1 km/h 13.4 km/h 66% 0.0 mm 118 W/m2
13:50 16.6 °C 10.4 °C 986.3 hPa NE 5.0 km/h 17.2 km/h 67% 0.0 mm 127 W/m2
13:55 16.7 °C 10.6 °C 986.7 hPa NNE 3.5 km/h 17.2 km/h 67% 0.0 mm 144 W/m2
14:00 16.7 °C 10.3 °C 986.3 hPa NNE 3.5 km/h 13.4 km/h 66% 0.0 mm 146 W/m2
14:05 16.7 °C 10.1 °C 986.3 hPa NE 8.7 km/h 13.4 km/h 65% 0.0 mm 144 W/m2
14:10 16.7 °C 10.1 °C 986.0 hPa ENE 7.2 km/h 14.8 km/h 65% 0.0 mm 163 W/m2
14:15 16.9 °C 10.5 °C 986.0 hPa ENE 7.2 km/h 14.8 km/h 66% 0.0 mm 159 W/m2
14:20 16.9 °C 10.5 °C 986.0 hPa ENE 3.5 km/h 11.1 km/h 66% 0.0 mm 139 W/m2
14:25 16.9 °C 10.5 °C 985.7 hPa ENE 5.0 km/h 11.1 km/h 66% 0.0 mm 144 W/m2
14:30 16.7 °C 10.3 °C 985.7 hPa ENE 5.0 km/h 11.1 km/h 66% 0.0 mm 144 W/m2
14:35 16.7 °C 10.3 °C 985.7 hPa ENE 3.5 km/h 11.1 km/h 66% 0.0 mm 117 W/m2
14:40 16.7 °C 10.6 °C 985.3 hPa ENE 3.5 km/h 9.7 km/h 67% 0.0 mm 105 W/m2
14:45 16.6 °C 10.4 °C 985.7 hPa ENE 3.5 km/h 11.1 km/h 67% 0.0 mm 107 W/m2
14:50 16.6 °C 10.9 °C 985.7 hPa NE 7.2 km/h 11.1 km/h 69% 0.0 mm 94 W/m2
14:55 16.5 °C 10.8 °C 985.3 hPa NE 3.5 km/h 9.7 km/h 69% 0.0 mm 83 W/m2
15:00 16.5 °C 10.8 °C 985.7 hPa NE 2.6 km/h 8.7 km/h 69% 0.0 mm 61 W/m2
15:05 16.4 °C 10.5 °C 985.7 hPa NNE 1.1 km/h 8.7 km/h 68% 0.0 mm 56 W/m2
15:11 16.3 °C 10.6 °C 985.7 hPa NNE 3.5 km/h 8.7 km/h 69% 0.0 mm 38 W/m2
15:16 16.1 °C 10.4 °C 985.7 hPa NNE 8.7 km/h 14.8 km/h 69% 0.0 mm 28 W/m2
15:21 16.0 °C 9.7 °C 985.7 hPa North 6.1 km/h 23.3 km/h 66% 0.0 mm 25 W/m2
15:26 15.9 °C 9.8 °C 985.7 hPa North 8.7 km/h 23.3 km/h 67% 0.0 mm 22 W/m2
15:33 15.5 °C 10.1 °C 985.7 hPa North 12.2 km/h 19.5 km/h 70% 0.0 mm 22 W/m2
15:38 15.2 °C 10.2 °C 985.7 hPa NNE 7.2 km/h 19.5 km/h 72% 0.0 mm 27 W/m2
15:40 15.1 °C 10.1 °C 985.7 hPa North 6.1 km/h 15.8 km/h 72% 0.0 mm 28 W/m2
15:45 15.1 °C 10.3 °C 985.7 hPa North 12.2 km/h 21.9 km/h 73% 0.0 mm 35 W/m2
16:03 15.0 °C 10.6 °C 986.0 hPa North 6.1 km/h 19.5 km/h 75% 0.0 mm 27 W/m2
16:08 14.9 °C 10.9 °C 986.0 hPa North 9.7 km/h 23.3 km/h 77% 0.0 mm 22 W/m2
16:13 14.7 °C 10.9 °C 986.0 hPa NNE 13.4 km/h 23.3 km/h 78% 0.0 mm 19 W/m2
16:18 14.3 °C 10.7 °C 986.0 hPa NNE 11.1 km/h 30.6 km/h 79% 0.0 mm 19 W/m2
16:23 13.9 °C 10.9 °C 986.0 hPa North 14.8 km/h 30.6 km/h 82% 0.3 mm 20 W/m2
16:28 13.5 °C 10.5 °C 986.0 hPa North 11.1 km/h 30.6 km/h 82% 0.3 mm 13 W/m2
16:33 13.4 °C 10.2 °C 986.0 hPa NNE 7.2 km/h 21.9 km/h 81% 0.3 mm 5 W/m2
16:38 13.2 °C 10.2 °C 986.0 hPa NNE 5.0 km/h 15.8 km/h 82% 0.3 mm 7 W/m2
16:43 12.9 °C 9.9 °C 985.7 hPa NNE 5.0 km/h 20.9 km/h 82% 0.3 mm 43 W/m2
16:48 12.6 °C 9.8 °C 985.7 hPa NNE 2.6 km/h 20.9 km/h 83% 0.3 mm 59 W/m2
16:53 12.6 °C 9.8 °C 985.7 hPa NNE 5.0 km/h 9.7 km/h 83% 0.5 mm 32 W/m2
16:58 12.5 °C 9.9 °C 985.7 hPa NW 3.5 km/h 9.7 km/h 84% 0.5 mm 19 W/m2
17:03 12.4 °C 9.9 °C 985.7 hPa NW 3.5 km/h 9.7 km/h 85% 0.5 mm 13 W/m2
17:08 12.4 °C 9.9 °C 985.3 hPa NNW 3.5 km/h 9.7 km/h 85% 0.5 mm 13 W/m2
17:13 12.3 °C 9.8 °C 985.3 hPa NNW 3.5 km/h 11.1 km/h 85% 0.5 mm 12 W/m2
17:18 12.3 °C 9.8 °C 985.7 hPa North 5.0 km/h 11.1 km/h 85% 0.3 mm 8 W/m2
17:23 12.2 °C 9.8 °C 985.7 hPa North 6.1 km/h 11.1 km/h 85% 0.3 mm 3 W/m2
17:28 12.1 °C 9.8 °C 985.7 hPa NNW 5.0 km/h 9.7 km/h 86% 0.3 mm 0 W/m2
17:33 12.1 °C 9.8 °C 985.7 hPa NNW 2.6 km/h 8.7 km/h 86% 0.3 mm 0 W/m2
17:38 12.0 °C 9.9 °C 985.7 hPa North 3.5 km/h 7.2 km/h 87% 0.3 mm 0 W/m2
17:43 11.9 °C 10.2 °C 985.3 hPa North 1.1 km/h 6.1 km/h 89% 0.3 mm 0 W/m2
17:48 11.8 °C 10.1 °C 985.3 hPa Calm   6.1 km/h 89% 0.3 mm 0 W/m2
17:53 11.7 °C 9.9 °C 985.3 hPa NNE 1.1 km/h 3.5 km/h 89% 0.0 mm 0 W/m2
17:58 11.7 °C 9.9 °C 985.3 hPa Calm   6.1 km/h 89% 0.0 mm 0 W/m2
18:03 11.6 °C 9.8 °C 985.3 hPa WNW 3.5 km/h 6.1 km/h 89% 0.0 mm 0 W/m2
18:05 11.6 °C 9.8 °C 985.3 hPa WNW 3.5 km/h 6.1 km/h 89% 0.0 mm 0 W/m2
18:25 11.4 °C 10.2 °C 985.3 hPa NW 3.5 km/h 6.1 km/h 92% 0.0 mm 0 W/m2
18:30 11.3 °C 10.1 °C 985.7 hPa NW 5.0 km/h 7.2 km/h 92% 0.0 mm 0 W/m2
18:35 11.3 °C 10.1 °C 985.7 hPa NW 3.5 km/h 7.2 km/h 92% 0.0 mm 0 W/m2
18:40 11.2 °C 10.1 °C 985.7 hPa NW 3.5 km/h 7.2 km/h 93% 0.0 mm 0 W/m2
18:45 11.2 °C 10.1 °C 985.7 hPa NW 3.5 km/h 6.1 km/h 93% 0.0 mm 0 W/m2
18:50 11.2 °C 10.1 °C 985.7 hPa NW 3.5 km/h 7.2 km/h 93% 0.0 mm 0 W/m2
18:55 11.2 °C 10.1 °C 985.7 hPa NW 9.7 km/h 11.1 km/h 93% 0.0 mm 0 W/m2
19:00 11.3 °C 10.2 °C 985.7 hPa NW 7.2 km/h 15.8 km/h 93% 0.0 mm 0 W/m2
19:05 11.4 °C 10.3 °C 985.7 hPa NW 8.7 km/h 15.8 km/h 93% 0.0 mm 0 W/m2
19:10 11.4 °C 10.3 °C 986.0 hPa NNW 7.2 km/h 15.8 km/h 93% 0.0 mm 0 W/m2
19:15 11.4 °C 10.3 °C 986.0 hPa NNW 7.2 km/h 14.8 km/h 93% 0.0 mm 0 W/m2
19:20 11.5 °C 10.4 °C 986.0 hPa North 5.0 km/h 17.2 km/h 93% 0.0 mm 0 W/m2
19:25 11.5 °C 10.4 °C 986.3 hPa North 6.1 km/h 17.2 km/h 93% 0.0 mm 0 W/m2
19:30 11.4 °C 10.3 °C 986.3 hPa North 8.7 km/h 14.8 km/h 93% 0.3 mm 0 W/m2
19:35 11.4 °C 10.3 °C 986.3 hPa North 5.0 km/h 11.1 km/h 93% 0.3 mm 0 W/m2
19:40 11.3 °C 10.2 °C 986.3 hPa North 5.0 km/h 11.1 km/h 93% 0.5 mm 0 W/m2
19:45 11.2 °C 10.3 °C 986.0 hPa North 3.5 km/h 9.7 km/h 94% 1.0 mm 0 W/m2
19:50 11.1 °C 10.2 °C 986.3 hPa North 5.0 km/h 9.7 km/h 94% 1.0 mm 0 W/m2
19:55 11.1 °C 10.2 °C 986.3 hPa North 3.5 km/h 8.7 km/h 94% 1.0 mm 0 W/m2
20:00 11.0 °C 10.2 °C 986.3 hPa North 2.6 km/h 7.2 km/h 95% 1.0 mm 0 W/m2
20:05 11.0 °C 10.2 °C 986.3 hPa North 1.1 km/h 5.0 km/h 95% 1.0 mm 0 W/m2
20:10 10.9 °C 10.3 °C 986.3 hPa North 1.1 km/h 5.0 km/h 96% 1.0 mm 0 W/m2
20:15 10.9 °C 10.3 °C 986.3 hPa Calm   5.0 km/h 96% 1.0 mm 0 W/m2
20:20 10.9 °C 10.3 °C 986.3 hPa Calm   3.5 km/h 96% 1.0 mm 0 W/m2
20:25 10.9 °C 10.3 °C 986.0 hPa NE 1.1 km/h 2.6 km/h 96% 1.0 mm 0 W/m2
20:30 10.9 °C 10.4 °C 986.0 hPa ENE 2.6 km/h 6.1 km/h 97% 0.5 mm 0 W/m2
20:35 10.9 °C 10.4 °C 986.0 hPa NE 1.1 km/h 6.1 km/h 97% 0.5 mm 0 W/m2
20:40 10.9 °C 10.4 °C 986.0 hPa Calm   3.5 km/h 97% 0.3 mm 0 W/m2
20:45 10.9 °C 10.4 °C 986.0 hPa Calm   2.6 km/h 97% 0.0 mm 0 W/m2
20:50 10.9 °C 10.4 °C 986.0 hPa NE 1.1 km/h 3.5 km/h 97% 0.0 mm 0 W/m2
20:55 10.9 °C 10.4 °C 986.0 hPa Calm   3.5 km/h 97% 0.0 mm 0 W/m2
21:00 10.8 °C 10.3 °C 986.0 hPa North 2.6 km/h 7.2 km/h 97% 0.0 mm 0 W/m2
21:05 10.9 °C 10.4 °C 986.0 hPa NNW 2.6 km/h 7.2 km/h 97% 0.0 mm 0 W/m2
21:10 10.9 °C 10.4 °C 986.0 hPa WNW 2.6 km/h 5.0 km/h 97% 0.0 mm 0 W/m2
21:30 10.6 °C 10.0 °C 986.0 hPa NNW 5.0 km/h 7.2 km/h 96% 0.0 mm 0 W/m2
21:35 10.6 °C 10.0 °C 986.0 hPa NNW 2.6 km/h 6.1 km/h 96% 0.0 mm 0 W/m2
21:40 10.4 °C 9.8 °C 986.3 hPa NNW 1.1 km/h 6.1 km/h 96% 0.0 mm 0 W/m2
21:45 10.3 °C 9.7 °C 986.0 hPa North 2.6 km/h 5.0 km/h 96% 0.0 mm 0 W/m2
21:50 10.2 °C 9.6 °C 986.0 hPa North 3.5 km/h 5.0 km/h 96% 0.0 mm 0 W/m2
21:55 10.1 °C 9.5 °C 986.0 hPa NNW 2.6 km/h 5.0 km/h 96% 0.0 mm 0 W/m2
22:00 10.0 °C 9.4 °C 986.0 hPa North 2.6 km/h 5.0 km/h 96% 0.0 mm 0 W/m2
22:05 9.8 °C 9.3 °C 986.0 hPa North 2.6 km/h 5.0 km/h 97% 0.0 mm 0 W/m2
22:10 9.7 °C 9.2 °C 985.7 hPa North 3.5 km/h 6.1 km/h 97% 0.0 mm 0 W/m2
22:15 9.6 °C 9.2 °C 985.7 hPa North 2.6 km/h 6.1 km/h 97% 0.0 mm 0 W/m2
22:20 9.4 °C 8.9 °C 985.7 hPa North 1.1 km/h 6.1 km/h 97% 0.0 mm 0 W/m2
22:25 9.3 °C 8.8 °C 985.7 hPa NNW 2.6 km/h 5.0 km/h 97% 0.0 mm 0 W/m2
22:30 9.3 °C 9.0 °C 985.7 hPa NNW 3.5 km/h 6.1 km/h 98% 0.0 mm 0 W/m2
22:35 9.2 °C 8.9 °C 985.7 hPa NNW 1.1 km/h 6.1 km/h 98% 0.0 mm 0 W/m2
22:40 9.2 °C 8.9 °C 985.7 hPa North 2.6 km/h 5.0 km/h 98% 0.0 mm 0 W/m2
22:45 9.2 °C 8.9 °C 985.7 hPa NNW 3.5 km/h 5.0 km/h 98% 0.0 mm 0 W/m2
22:50 9.1 °C 8.8 °C 985.7 hPa NW 3.5 km/h 6.1 km/h 98% 0.0 mm 0 W/m2
22:55 8.9 °C 8.8 °C 985.7 hPa NW 3.5 km/h 6.1 km/h 99% 0.0 mm 0 W/m2
23:00 8.9 °C 8.8 °C 985.7 hPa NW 3.5 km/h 5.0 km/h 99% 0.0 mm 0 W/m2
23:05 8.7 °C 8.6 °C 985.7 hPa NW 2.6 km/h 5.0 km/h 99% 0.0 mm 0 W/m2
23:10 8.7 °C 8.6 °C 985.7 hPa NW 2.6 km/h 5.0 km/h 99% 0.0 mm 0 W/m2
23:15 8.5 °C 8.3 °C 986.0 hPa NNW 1.1 km/h 5.0 km/h 99% 0.0 mm 0 W/m2
23:20 8.4 °C 8.3 °C 985.7 hPa Calm   5.0 km/h 99% 0.0 mm 0 W/m2
23:25 8.3 °C 8.2 °C 985.7 hPa Calm   2.6 km/h 99% 0.0 mm 0 W/m2
23:30 8.3 °C 8.2 °C 985.7 hPa North 1.1 km/h 2.6 km/h 99% 0.0 mm 0 W/m2
23:35 8.3 °C 8.2 °C 985.7 hPa North 1.1 km/h 3.5 km/h 99% 0.0 mm 0 W/m2
23:40 8.3 °C 8.2 °C 985.7 hPa North 2.6 km/h 3.5 km/h 99% 0.0 mm 0 W/m2
23:45 8.2 °C 7.9 °C 985.7 hPa Calm   3.5 km/h 98% 0.0 mm 0 W/m2
23:50 8.1 °C 7.8 °C 985.7 hPa Calm   3.5 km/h 98% 0.0 mm 0 W/m2
23:55 8.1 °C 7.9 °C 985.7 hPa NNW 2.6 km/h 3.5 km/h 99% 0.0 mm 0 W/m2
Northern Hawkes Bay. New Zealand Historic Data
Compliments of Weather Underground - 2 mb